This is the latest recevied weather packets stored in our database for station/object KB1ZFK. If no packets are shown the sender has not sent any weather packets the latest 10 day(s).
| Time | Temp. | Humidity | Pressure | Rain* | Wind** | Luminosity | Snow |
|---|---|---|---|---|---|---|---|
| 1777572922 | 8.89° C | 97% | 1006.1 hPa | 0 mm | - | 93 W/m² | - |
| 1777572618 | 8.89° C | 97% | 1006.2 hPa | 0 mm | - | 95 W/m² | - |
| 1777572312 | 8.89° C | 97% | 1006.3 hPa | 0 mm | - | 91 W/m² | - |
| 1777572010 | 8.89° C | 97% | 1006.3 hPa | 0 mm | - | 116 W/m² | - |
| 1777571709 | 8.89° C | 97% | 1006.2 hPa | 0 mm | - | 127 W/m² | - |
| 1777571407 | 8.33° C | 97% | 1006.3 hPa | 0 mm | - | 133 W/m² | - |
| 1777571103 | 8.33° C | 97% | 1006.4 hPa | 0 mm | - | 134 W/m² | - |
| 1777570799 | 8.33° C | 97% | 1006.3 hPa | 0 mm | - | 145 W/m² | - |
| 1777570495 | 8.33° C | 97% | 1006.7 hPa | 0 mm | - | 124 W/m² | - |
| 1777570191 | 8.33° C | 97% | 1006.8 hPa | 0 mm | - | 77 W/m² | - |
| 1777569887 | 8.33° C | 97% | 1006.7 hPa | 0 mm | - | 106 W/m² | - |
| 1777569583 | 8.33° C | 98% | 1006.7 hPa | 0 mm | - | 132 W/m² | - |
| 1777569280 | 8.33° C | 98% | 1006.7 hPa | 0 mm | - | 115 W/m² | - |
| 1777568976 | 8.33° C | 98% | 1006.6 hPa | 0 mm | - | 107 W/m² | - |
| 1777568673 | 8.33° C | 98% | 1006.7 hPa | 0 mm | - | 134 W/m² | - |
| 1777568371 | 8.33° C | 98% | 1006.6 hPa | 0 mm | - | 126 W/m² | - |
| 1777568067 | 8.33° C | 98% | 1006.5 hPa | 0 mm | - | 183 W/m² | - |
| 1777567763 | 7.78° C | 98% | 1006.4 hPa | 1.78 mm | - | 237 W/m² | - |
| 1777567460 | 7.78° C | 98% | 1006.6 hPa | 3.05 mm | - | 170 W/m² | - |
| 1777567158 | 7.78° C | 98% | 1006.6 hPa | 3.05 mm | - | 161 W/m² | - |
| 1777566856 | 7.78° C | 98% | 1006.8 hPa | 3.05 mm | - | 149 W/m² | - |
| 1777566554 | 7.78° C | 98% | 1006.7 hPa | 4.83 mm | - | 138 W/m² | - |
| 1777566251 | 7.78° C | 98% | 1006.9 hPa | 3.05 mm | - | 110 W/m² | - |
| 1777565948 | 7.78° C | 98% | 1007 hPa | 0 mm | - | 81 W/m² | - |
| 1777565643 | 7.78° C | 98% | 1007 hPa | 1.27 mm | - | 62 W/m² | - |
* Rain latest hour (hover to see other rain measurements)
** Current wind speed in m/s (hover to see current wind gust speed)